Accueil
METAR-TAF:

METAR-TAF

Aéroports :

Gwadar, Pakistan

latitude: 25-13-59N, longitude: 062-19-46E, altitude: 29 m

METAR: absent

Heure: 10:14 (05:14 UTC)

Prévision

Le bulletin a été fait il y a 7 heures et 44 minutes, à 21:30 UTC
Prévision valable du 08 à 00 UTC au 08 à 24 UTC
Vent 10 kt de nord-est
Visibilité: 7000 m
Temporairement
du 08 à 00 UTC au 08 à 04 UTC
Vent kt de nord
Visibilité: 5000 m
brume sèche
A partir de 08 à 1600 UTC
Vent 8 kt de est
Visibilité: 6000 m

TAF: OPGD 072130Z 0800/0824 05010KT 7000 NSC TEMPO 0800/0804 00000KT 5000 HZ NSC FM081600 09008KT 6000 NSC

Observations et prévisions météorologiques de plus de 4000 aéroports (messages METAR et TAF).

Les stations disponibles sont représentées par des disques jaunes et rouges sur la carte.

Passer la souris dessus pour voir le nom de la station.

Cliquer dessus pour voir les observations et prévisions météorologiques.

Pour changer de carte: cliquez sur les boutons verts avec une croix noire pour zoomer, sur le bouton vert avec un tiret pour effectuer un zoom arrière, ou sur les flèches vertes pour les cartes adjacentes.


METAR-TAF: